sensor_id;sensor_type;location;lat;lon;timestamp;pressure;altitude;pressure_sealevel;temperature;humidity
72857;BME280;62742;52.136;4.500;2023-04-24T00:00:31;99969.84;;;9.50;100.00
72857;BME280;62742;52.136;4.500;2023-04-24T00:02:57;99967.81;;;9.60;100.00
72857;BME280;62742;52.136;4.500;2023-04-24T00:05:24;99973.69;;;9.69;100.00
72857;BME280;62742;52.136;4.500;2023-04-24T00:07:50;99971.63;;;9.82;100.00
72857;BME280;62742;52.136;4.500;2023-04-24T00:10:18;99975.47;;;9.69;99.53
72857;BME280;62742;52.136;4.500;2023-04-24T00:12:44;99981.69;;;9.65;100.00
72857;BME280;62742;52.136;4.500;2023-04-24T00:15:11;99979.06;;;9.65;100.00
72857;BME280;62742;52.136;4.500;2023-04-24T00:17:38;99973.81;;;9.65;100.00
72857;BME280;62742;52.136;4.500;2023-04-24T00:20:05;99980.38;;;9.48;100.00
72857;BME280;62742;52.136;4.500;2023-04-24T00:22:33;99979.44;;;9.49;100.00
72857;BME280;62742;52.136;4.500;2023-04-24T00:24:59;99987.44;;;9.45;100.00
72857;BME280;62742;52.136;4.500;2023-04-24T00:27:25;99992.53;;;9.51;100.00
72857;BME280;62742;52.136;4.500;2023-04-24T00:29:51;99983.53;;;9.61;100.00
72857;BME280;62742;52.136;4.500;2023-04-24T00:32:18;99983.47;;;9.63;100.00
72857;BME280;62742;52.136;4.500;2023-04-24T00:34:44;99982.91;;;9.51;100.00
72857;BME280;62742;52.136;4.500;2023-04-24T00:37:11;99986.47;;;9.49;100.00
72857;BME280;62742;52.136;4.500;2023-04-24T00:39:37;99986.31;;;9.55;100.00
72857;BME280;62742;52.136;4.500;2023-04-24T00:42:03;99982.81;;;9.54;100.00
72857;BME280;62742;52.136;4.500;2023-04-24T00:44:32;99984.53;;;9.55;100.00
72857;BME280;62742;52.136;4.500;2023-04-24T00:47:00;99981.97;;;9.54;100.00
72857;BME280;62742;52.136;4.500;2023-04-24T00:49:27;99979.53;;;9.46;100.00
72857;BME280;62742;52.136;4.500;2023-04-24T00:51:53;99983.00;;;9.48;100.00
72857;BME280;62742;52.136;4.500;2023-04-24T00:54:19;99979.69;;;9.40;100.00
72857;BME280;62742;52.136;4.500;2023-04-24T00:56:46;99980.38;;;9.48;99.58
72857;BME280;62742;52.136;4.500;2023-04-24T00:59:12;99978.84;;;9.40;99.98
72857;BME280;62742;52.136;4.500;2023-04-24T01:01:39;99982.41;;;9.35;100.00
72857;BME280;62742;52.136;4.500;2023-04-24T01:04:07;99977.94;;;9.39;100.00
72857;BME280;62742;52.136;4.500;2023-04-24T01:06:35;99976.31;;;9.35;100.00
72857;BME280;62742;52.136;4.500;2023-04-24T01:09:05;99983.22;;;9.38;100.00
72857;BME280;62742;52.136;4.500;2023-04-24T01:11:34;99983.19;;;9.39;100.00
72857;BME280;62742;52.136;4.500;2023-04-24T01:14:00;99987.56;;;9.40;100.00
72857;BME280;62742;52.136;4.500;2023-04-24T01:16:27;99977.44;;;9.25;100.00
72857;BME280;62742;52.136;4.500;2023-04-24T01:18:53;99978.22;;;9.28;100.00
72857;BME280;62742;52.136;4.500;2023-04-24T01:21:20;99980.78;;;9.31;100.00
72857;BME280;62742;52.136;4.500;2023-04-24T01:23:47;99987.56;;;9.40;100.00
72857;BME280;62742;52.136;4.500;2023-04-24T01:26:14;99993.97;;;9.28;100.00
72857;BME280;62742;52.136;4.500;2023-04-24T01:28:41;99985.00;;;9.37;100.00
72857;BME280;62742;52.136;4.500;2023-04-24T01:31:08;99986.75;;;9.38;100.00
72857;BME280;62742;52.136;4.500;2023-04-24T01:33:34;99992.81;;;9.40;100.00
72857;BME280;62742;52.136;4.500;2023-04-24T01:36:00;99988.41;;;9.41;100.00
72857;BME280;62742;52.136;4.500;2023-04-24T01:38:27;99989.13;;;9.47;100.00
72857;BME280;62742;52.136;4.500;2023-04-24T01:40:53;99985.84;;;9.38;100.00
72857;BME280;62742;52.136;4.500;2023-04-24T01:43:20;99990.19;;;9.40;100.00
72857;BME280;62742;52.136;4.500;2023-04-24T01:45:46;99983.44;;;9.30;100.00
72857;BME280;62742;52.136;4.500;2023-04-24T01:48:12;99984.03;;;9.41;100.00
72857;BME280;62742;52.136;4.500;2023-04-24T01:50:39;99984.88;;;9.43;100.00
72857;BME280;62742;52.136;4.500;2023-04-24T01:53:05;99987.94;;;9.59;100.00
72857;BME280;62742;52.136;4.500;2023-04-24T01:55:31;99980.47;;;9.44;100.00
72857;BME280;62742;52.136;4.500;2023-04-24T01:57:58;99988.28;;;9.47;100.00
72857;BME280;62742;52.136;4.500;2023-04-24T02:00:25;99980.31;;;9.50;99.24
72857;BME280;62742;52.136;4.500;2023-04-24T02:02:52;99984.88;;;9.43;100.00
72857;BME280;62742;52.136;4.500;2023-04-24T02:05:18;99980.44;;;9.45;100.00
72857;BME280;62742;52.136;4.500;2023-04-24T02:07:44;99982.75;;;9.58;99.64
72857;BME280;62742;52.136;4.500;2023-04-24T02:10:10;99974.91;;;9.56;99.31
72857;BME280;62742;52.136;4.500;2023-04-24T02:12:37;99975.59;;;9.64;98.34
72857;BME280;62742;52.136;4.500;2023-04-24T02:15:03;99977.41;;;9.61;98.65
72857;BME280;62742;52.136;4.500;2023-04-24T02:17:30;99975.53;;;9.66;98.63
72857;BME280;62742;52.136;4.500;2023-04-24T02:19:56;99968.66;;;9.62;98.86
72857;BME280;62742;52.136;4.500;2023-04-24T02:22:22;99966.69;;;9.70;98.73
72857;BME280;62742;52.136;4.500;2023-04-24T02:24:48;99957.88;;;9.72;97.19
72857;BME280;62742;52.136;4.500;2023-04-24T02:27:15;99963.25;;;9.68;97.23
72857;BME280;62742;52.136;4.500;2023-04-24T02:29:41;99964.69;;;9.80;97.13
72857;BME280;62742;52.136;4.500;2023-04-24T02:32:07;99960.69;;;9.65;97.70
72857;BME280;62742;52.136;4.500;2023-04-24T02:34:37;99948.34;;;9.68;98.80
72857;BME280;62742;52.136;4.500;2023-04-24T02:37:04;99959.06;;;9.61;98.86
72857;BME280;62742;52.136;4.500;2023-04-24T02:39:30;99960.09;;;9.55;99.70
72857;BME280;62742;52.136;4.500;2023-04-24T02:41:56;99951.13;;;9.64;98.98
72857;BME280;62742;52.136;4.500;2023-04-24T02:44:22;99957.44;;;9.57;99.47
72857;BME280;62742;52.136;4.500;2023-04-24T02:46:48;99959.03;;;9.62;99.44
72857;BME280;62742;52.136;4.500;2023-04-24T02:49:15;99949.56;;;9.57;98.90
72857;BME280;62742;52.136;4.500;2023-04-24T02:51:41;99959.13;;;9.58;99.82
72857;BME280;62742;52.136;4.500;2023-04-24T02:54:08;99961.97;;;9.50;100.00
72857;BME280;62742;52.136;4.500;2023-04-24T02:56:37;99961.94;;;9.51;99.70
72857;BME280;62742;52.136;4.500;2023-04-24T02:59:03;99968.63;;;9.27;100.00
72857;BME280;62742;52.136;4.500;2023-04-24T03:01:29;99974.03;;;9.21;100.00
72857;BME280;62742;52.136;4.500;2023-04-24T03:03:56;99970.66;;;9.16;100.00
72857;BME280;62742;52.136;4.500;2023-04-24T03:06:22;99979.59;;;9.09;100.00
72857;BME280;62742;52.136;4.500;2023-04-24T03:08:48;99991.59;;;9.17;100.00
72857;BME280;62742;52.136;4.500;2023-04-24T03:11:14;99987.91;;;9.26;100.00
72857;BME280;62742;52.136;4.500;2023-04-24T03:13:41;100000.19;;;9.24;100.00
72857;BME280;62742;52.136;4.500;2023-04-24T03:16:07;100002.25;;;9.10;100.00
72857;BME280;62742;52.136;4.500;2023-04-24T03:18:33;100002.34;;;9.05;100.00
72857;BME280;62742;52.136;4.500;2023-04-24T03:21:00;99991.69;;;9.13;100.00
72857;BME280;62742;52.136;4.500;2023-04-24T03:23:26;100005.63;;;9.15;100.00
72857;BME280;62742;52.136;4.500;2023-04-24T03:25:52;99993.44;;;9.14;100.00
72857;BME280;62742;52.136;4.500;2023-04-24T03:28:21;99993.53;;;9.09;100.00
72857;BME280;62742;52.136;4.500;2023-04-24T03:30:48;99992.63;;;9.10;100.00
72857;BME280;62742;52.136;4.500;2023-04-24T03:33:14;99998.53;;;9.18;100.00
72857;BME280;62742;52.136;4.500;2023-04-24T03:35:40;99990.88;;;9.11;99.78
72857;BME280;62742;52.136;4.500;2023-04-24T03:38:06;100002.16;;;9.14;100.00
72857;BME280;62742;52.136;4.500;2023-04-24T03:40:33;100005.66;;;9.13;99.81
72857;BME280;62742;52.136;4.500;2023-04-24T03:42:59;100001.44;;;9.08;99.56
72857;BME280;62742;52.136;4.500;2023-04-24T03:45:25;100007.53;;;9.08;99.13
72857;BME280;62742;52.136;4.500;2023-04-24T03:47:51;100003.31;;;9.01;99.41
72857;BME280;62742;52.136;4.500;2023-04-24T03:50:18;100011.16;;;9.03;99.40
72857;BME280;62742;52.136;4.500;2023-04-24T03:52:44;100013.88;;;8.98;99.71
72857;BME280;62742;52.136;4.500;2023-04-24T03:55:10;100009.34;;;9.05;99.62
72857;BME280;62742;52.136;4.500;2023-04-24T03:57:39;100002.97;;;9.16;99.35
72857;BME280;62742;52.136;4.500;2023-04-24T04:00:06;100001.25;;;9.15;99.06
72857;BME280;62742;52.136;4.500;2023-04-24T04:02:33;100004.75;;;9.16;98.99
72857;BME280;62742;52.136;4.500;2023-04-24T04:04:59;100023.28;;;9.07;98.94
72857;BME280;62742;52.136;4.500;2023-04-24T04:07:25;100011.63;;;9.20;99.37
72857;BME280;62742;52.136;4.500;2023-04-24T04:09:52;100007.16;;;9.24;98.94
72857;BME280;62742;52.136;4.500;2023-04-24T04:12:18;100002.63;;;9.30;98.93
72857;BME280;62742;52.136;4.500;2023-04-24T04:14:44;100017.56;;;9.28;98.32
72857;BME280;62742;52.136;4.500;2023-04-24T04:17:10;100031.31;;;9.38;97.68
72857;BME280;62742;52.136;4.500;2023-04-24T04:19:36;100018.19;;;9.38;98.83
72857;BME280;62742;52.136;4.500;2023-04-24T04:22:02;100031.53;;;9.27;99.66
72857;BME280;62742;52.136;4.500;2023-04-24T04:24:32;100041.88;;;9.35;99.11
72857;BME280;62742;52.136;4.500;2023-04-24T04:26:58;100042.00;;;9.29;100.00
72857;BME280;62742;52.136;4.500;2023-04-24T04:29:26;100047.63;;;9.49;98.83
72857;BME280;62742;52.136;4.500;2023-04-24T04:31:52;100045.34;;;9.35;99.33
72857;BME280;62742;52.136;4.500;2023-04-24T04:34:18;100052.91;;;9.10;100.00
72857;BME280;62742;52.136;4.500;2023-04-24T04:36:47;100054.84;;;9.02;100.00
72857;BME280;62742;52.136;4.500;2023-04-24T04:39:14;100072.84;;;9.17;100.00
72857;BME280;62742;52.136;4.500;2023-04-24T04:41:42;100083.19;;;9.24;99.16
72857;BME280;62742;52.136;4.500;2023-04-24T04:44:10;100086.09;;;9.11;99.70
72857;BME280;62742;52.136;4.500;2023-04-24T04:46:36;100093.25;;;9.03;99.55
72857;BME280;62742;52.136;4.500;2023-04-24T04:49:02;100096.97;;;8.91;100.00
72857;BME280;62742;52.136;4.500;2023-04-24T04:51:29;100099.03;;;8.77;100.00
72857;BME280;62742;52.136;4.500;2023-04-24T04:53:55;100108.34;;;8.92;100.00
72857;BME280;62742;52.136;4.500;2023-04-24T04:56:21;100119.63;;;8.95;100.00
72857;BME280;62742;52.136;4.500;2023-04-24T04:58:48;100134.47;;;8.95;99.84
72857;BME280;62742;52.136;4.500;2023-04-24T05:01:14;100138.84;;;8.94;100.00
72857;BME280;62742;52.136;4.500;2023-04-24T05:03:40;100141.41;;;8.97;99.47
72857;BME280;62742;52.136;4.500;2023-04-24T05:06:07;100150.31;;;8.89;99.36
72857;BME280;62742;52.136;4.500;2023-04-24T05:08:33;100158.47;;;8.75;99.24
72857;BME280;62742;52.136;4.500;2023-04-24T05:11:00;100164.66;;;8.69;99.28
72857;BME280;62742;52.136;4.500;2023-04-24T05:13:26;100172.50;;;8.69;99.62
72857;BME280;62742;52.136;4.500;2023-04-24T05:15:53;100182.06;;;8.73;98.48
72857;BME280;62742;52.136;4.500;2023-04-24T05:18:19;100195.38;;;8.61;98.33
72857;BME280;62742;52.136;4.500;2023-04-24T05:20:45;100204.13;;;8.60;98.64
72857;BME280;62742;52.136;4.500;2023-04-24T05:23:12;100205.13;;;8.53;99.15
72857;BME280;62742;52.136;4.500;2023-04-24T05:25:38;100206.75;;;8.60;99.12
72857;BME280;62742;52.136;4.500;2023-04-24T05:28:05;100223.31;;;8.59;99.16
72857;BME280;62742;52.136;4.500;2023-04-24T05:30:32;100222.44;;;8.60;99.59
72857;BME280;62742;52.136;4.500;2023-04-24T05:32:58;100231.31;;;8.53;98.48
72857;BME280;62742;52.136;4.500;2023-04-24T05:35:24;100239.22;;;8.48;99.74
72857;BME280;62742;52.136;4.500;2023-04-24T05:37:52;100245.22;;;8.55;97.74
72857;BME280;62742;52.136;4.500;2023-04-24T05:40:18;100251.50;;;8.46;97.28
72857;BME280;62742;52.136;4.500;2023-04-24T05:42:44;100253.13;;;8.52;96.67
72857;BME280;62742;52.136;4.500;2023-04-24T05:45:10;100262.00;;;8.41;96.41
72857;BME280;62742;52.136;4.500;2023-04-24T05:47:44;100270.66;;;8.47;96.37
72857;BME280;62742;52.136;4.500;2023-04-24T05:50:11;100273.31;;;8.45;97.50
72857;BME280;62742;52.136;4.500;2023-04-24T05:52:37;100282.94;;;8.43;97.29
72857;BME280;62742;52.136;4.500;2023-04-24T05:55:04;100282.94;;;8.41;97.87
72857;BME280;62742;52.136;4.500;2023-04-24T05:57:31;100295.84;;;8.55;97.36
72857;BME280;62742;52.136;4.500;2023-04-24T05:59:57;100290.44;;;8.68;96.24
72857;BME280;62742;52.136;4.500;2023-04-24T06:02:23;100300.13;;;8.63;96.99
72857;BME280;62742;52.136;4.500;2023-04-24T06:04:49;100308.06;;;8.55;97.49
72857;BME280;62742;52.136;4.500;2023-04-24T06:07:16;100316.72;;;8.60;97.13
72857;BME280;62742;52.136;4.500;2023-04-24T06:09:43;100325.44;;;8.60;97.31
72857;BME280;62742;52.136;4.500;2023-04-24T06:12:11;100316.00;;;8.50;97.16
72857;BME280;62742;52.136;4.500;2023-04-24T06:14:38;100338.66;;;8.54;98.38
72857;BME280;62742;52.136;4.500;2023-04-24T06:17:04;100333.22;;;8.65;96.95
72857;BME280;62742;52.136;4.500;2023-04-24T06:19:30;100342.75;;;8.69;95.93
72857;BME280;62742;52.136;4.500;2023-04-24T06:21:56;100351.59;;;8.64;96.37
72857;BME280;62742;52.136;4.500;2023-04-24T06:24:27;100363.16;;;8.47;96.71
72857;BME280;62742;52.136;4.500;2023-04-24T06:26:54;100366.53;;;8.57;96.60
72857;BME280;62742;52.136;4.500;2023-04-24T06:29:20;100382.94;;;8.68;94.97
72857;BME280;62742;52.136;4.500;2023-04-24T06:31:46;100380.34;;;8.67;95.03
72857;BME280;62742;52.136;4.500;2023-04-24T06:34:12;100392.72;;;8.55;94.68
72857;BME280;62742;52.136;4.500;2023-04-24T06:36:38;100391.72;;;8.64;95.25
72857;BME280;62742;52.136;4.500;2023-04-24T06:39:05;100402.97;;;8.71;94.57
72857;BME280;62742;52.136;4.500;2023-04-24T06:41:32;100398.72;;;8.64;95.90
72857;BME280;62742;52.136;4.500;2023-04-24T06:44:00;100410.84;;;8.69;95.28
72857;BME280;62742;52.136;4.500;2023-04-24T06:46:27;100414.28;;;8.74;93.10
72857;BME280;62742;52.136;4.500;2023-04-24T06:48:53;100421.28;;;8.74;93.40
72857;BME280;62742;52.136;4.500;2023-04-24T06:51:24;100428.38;;;8.64;94.17
72857;BME280;62742;52.136;4.500;2023-04-24T06:53:53;100439.91;;;8.52;96.08
72857;BME280;62742;52.136;4.500;2023-04-24T06:56:19;100447.59;;;8.66;95.98
72857;BME280;62742;52.136;4.500;2023-04-24T06:58:46;100451.28;;;8.50;96.33
72857;BME280;62742;52.136;4.500;2023-04-24T07:01:12;100460.13;;;8.42;97.09
72857;BME280;62742;52.136;4.500;2023-04-24T07:03:38;100464.38;;;8.50;95.87
72857;BME280;62742;52.136;4.500;2023-04-24T07:06:04;100462.72;;;8.46;95.57
72857;BME280;62742;52.136;4.500;2023-04-24T07:08:31;100464.56;;;8.34;95.91
72857;BME280;62742;52.136;4.500;2023-04-24T07:10:59;100467.25;;;8.28;95.99
72857;BME280;62742;52.136;4.500;2023-04-24T07:13:26;100464.69;;;8.23;95.67
72857;BME280;62742;52.136;4.500;2023-04-24T07:15:53;100475.91;;;8.33;95.41
72857;BME280;62742;52.136;4.500;2023-04-24T07:18:20;100486.38;;;8.33;91.34
72857;BME280;62742;52.136;4.500;2023-04-24T07:20:47;100484.53;;;8.45;92.02
72857;BME280;62742;52.136;4.500;2023-04-24T07:23:16;100496.69;;;8.49;90.04
72857;BME280;62742;52.136;4.500;2023-04-24T07:25:43;100501.09;;;8.45;90.44
72857;BME280;62742;52.136;4.500;2023-04-24T07:28:10;100501.84;;;8.55;90.50
72857;BME280;62742;52.136;4.500;2023-04-24T07:30:36;100506.09;;;8.64;90.97
72857;BME280;62742;52.136;4.500;2023-04-24T07:33:02;100526.16;;;8.68;91.76
72857;BME280;62742;52.136;4.500;2023-04-24T07:35:29;100513.97;;;8.62;89.72
72857;BME280;62742;52.136;4.500;2023-04-24T07:37:56;100531.38;;;8.68;88.55
72857;BME280;62742;52.136;4.500;2023-04-24T07:40:22;100522.66;;;8.66;88.72
72857;BME280;62742;52.136;4.500;2023-04-24T07:42:48;100538.28;;;8.75;89.00
72857;BME280;62742;52.136;4.500;2023-04-24T07:45:15;100541.66;;;8.83;89.18
72857;BME280;62742;52.136;4.500;2023-04-24T07:47:41;100539.84;;;8.88;86.45
72857;BME280;62742;52.136;4.500;2023-04-24T07:50:09;100540.75;;;8.86;88.03
72857;BME280;62742;52.136;4.500;2023-04-24T07:52:39;100553.91;;;8.79;88.57
72857;BME280;62742;52.136;4.500;2023-04-24T07:55:06;100550.69;;;8.59;88.18
72857;BME280;62742;52.136;4.500;2023-04-24T07:57:32;100555.03;;;8.61;90.45
72857;BME280;62742;52.136;4.500;2023-04-24T07:59:58;100567.19;;;8.66;85.24
72857;BME280;62742;52.136;4.500;2023-04-24T08:02:25;100564.59;;;8.64;86.18
72857;BME280;62742;52.136;4.500;2023-04-24T08:04:55;100568.88;;;8.71;87.76
72857;BME280;62742;52.136;4.500;2023-04-24T08:07:23;100573.97;;;8.84;86.08
72857;BME280;62742;52.136;4.500;2023-04-24T08:09:49;100583.59;;;8.83;84.66
72857;BME280;62742;52.136;4.500;2023-04-24T08:12:15;100587.72;;;8.99;84.94
72857;BME280;62742;52.136;4.500;2023-04-24T08:14:41;100589.66;;;8.87;85.04
72857;BME280;62742;52.136;4.500;2023-04-24T08:17:08;100583.34;;;9.00;84.68
72857;BME280;62742;52.136;4.500;2023-04-24T08:19:34;100591.91;;;9.14;82.30
72857;BME280;62742;52.136;4.500;2023-04-24T08:22:00;100598.78;;;9.22;84.04
72857;BME280;62742;52.136;4.500;2023-04-24T08:24:27;100603.13;;;9.24;81.18
72857;BME280;62742;52.136;4.500;2023-04-24T08:26:54;100594.34;;;9.25;81.13
72857;BME280;62742;52.136;4.500;2023-04-24T08:29:22;100613.44;;;9.36;78.67
72857;BME280;62742;52.136;4.500;2023-04-24T08:31:48;100614.19;;;9.46;78.82
72857;BME280;62742;52.136;4.500;2023-04-24T08:34:14;100619.78;;;9.20;78.81
72857;BME280;62742;52.136;4.500;2023-04-24T08:36:40;100616.66;;;8.93;77.89
72857;BME280;62742;52.136;4.500;2023-04-24T08:39:08;100620.06;;;8.98;78.10
72857;BME280;62742;52.136;4.500;2023-04-24T08:41:35;100630.50;;;9.00;78.24
72857;BME280;62742;52.136;4.500;2023-04-24T08:44:03;100643.59;;;9.00;78.89
72857;BME280;62742;52.136;4.500;2023-04-24T08:46:30;100639.97;;;9.10;78.80
72857;BME280;62742;52.136;4.500;2023-04-24T08:48:57;100636.41;;;9.17;76.15
72857;BME280;62742;52.136;4.500;2023-04-24T08:51:24;100644.28;;;9.17;78.97
72857;BME280;62742;52.136;4.500;2023-04-24T08:53:52;100645.72;;;9.40;79.12
72857;BME280;62742;52.136;4.500;2023-04-24T08:56:21;100643.94;;;9.42;78.59
72857;BME280;62742;52.136;4.500;2023-04-24T08:58:51;100651.03;;;9.34;79.17
72857;BME280;62742;52.136;4.500;2023-04-24T09:01:19;100659.00;;;9.28;77.68
72857;BME280;62742;52.136;4.500;2023-04-24T09:03:49;100659.88;;;9.27;79.25
72857;BME280;62742;52.136;4.500;2023-04-24T09:06:16;100673.28;;;9.04;77.11
72857;BME280;62742;52.136;4.500;2023-04-24T09:08:45;100674.38;;;8.86;78.86
72857;BME280;62742;52.136;4.500;2023-04-24T09:11:13;100670.72;;;8.97;79.25
72857;BME280;62742;52.136;4.500;2023-04-24T09:13:40;100667.97;;;9.08;79.39
72857;BME280;62742;52.136;4.500;2023-04-24T09:16:07;100674.97;;;9.09;77.84
72857;BME280;62742;52.136;4.500;2023-04-24T09:18:33;100662.59;;;9.21;77.76
72857;BME280;62742;52.136;4.500;2023-04-24T09:21:01;100668.56;;;9.32;76.95
72857;BME280;62742;52.136;4.500;2023-04-24T09:23:30;100667.44;;;9.51;75.76
72857;BME280;62742;52.136;4.500;2023-04-24T09:25:57;100680.44;;;9.58;74.34
72857;BME280;62742;52.136;4.500;2023-04-24T09:28:27;100671.53;;;9.68;74.92
72857;BME280;62742;52.136;4.500;2023-04-24T09:31:05;100679.06;;;9.92;72.92
72857;BME280;62742;52.136;4.500;2023-04-24T09:33:37;100693.81;;;10.00;73.58
72857;BME280;62742;52.136;4.500;2023-04-24T09:36:03;100686.81;;;9.99;74.23
72857;BME280;62742;52.136;4.500;2023-04-24T09:41:05;100703.34;;;9.46;74.97
72857;BME280;62742;52.136;4.500;2023-04-24T09:43:33;100708.59;;;9.46;76.61
72857;BME280;62742;52.136;4.500;2023-04-24T09:46:07;100721.84;;;9.32;80.40
72857;BME280;62742;52.136;4.500;2023-04-24T09:48:36;100728.03;;;9.30;81.03
72857;BME280;62742;52.136;4.500;2023-04-24T09:51:03;100728.69;;;9.46;81.05
72857;BME280;62742;52.136;4.500;2023-04-24T09:53:37;100731.44;;;9.35;80.73
72857;BME280;62742;52.136;4.500;2023-04-24T09:56:08;100725.88;;;9.60;81.11
72857;BME280;62742;52.136;4.500;2023-04-24T09:58:36;100722.53;;;9.48;79.01
72857;BME280;62742;52.136;4.500;2023-04-24T10:01:02;100736.34;;;9.61;79.42
72857;BME280;62742;52.136;4.500;2023-04-24T10:03:32;100733.50;;;9.77;79.30
72857;BME280;62742;52.136;4.500;2023-04-24T10:06:02;100729.88;;;9.87;79.83
72857;BME280;62742;52.136;4.500;2023-04-24T10:08:36;100735.66;;;10.09;78.01
72857;BME280;62742;52.136;4.500;2023-04-24T10:11:03;100735.19;;;10.40;77.39
72857;BME280;62742;52.136;4.500;2023-04-24T10:13:29;100745.16;;;10.72;74.43
72857;BME280;62742;52.136;4.500;2023-04-24T10:15:56;100738.66;;;10.42;73.46
72857;BME280;62742;52.136;4.500;2023-04-24T10:18:25;100744.75;;;10.45;73.00
72857;BME280;62742;52.136;4.500;2023-04-24T10:20:53;100747.88;;;10.68;73.59
72857;BME280;62742;52.136;4.500;2023-04-24T10:23:20;100740.16;;;11.05;72.88
72857;BME280;62742;52.136;4.500;2023-04-24T10:25:47;100741.78;;;11.56;69.88
72857;BME280;62742;52.136;4.500;2023-04-24T10:28:15;100746.78;;;11.26;71.14
72857;BME280;62742;52.136;4.500;2023-04-24T10:30:43;100750.56;;;11.11;69.25
72857;BME280;62742;52.136;4.500;2023-04-24T10:33:12;100744.63;;;11.00;72.03
72857;BME280;62742;52.136;4.500;2023-04-24T10:35:44;100740.81;;;11.18;71.66
72857;BME280;62742;52.136;4.500;2023-04-24T10:38:17;100754.41;;;11.38;72.16
72857;BME280;62742;52.136;4.500;2023-04-24T10:40:51;100758.91;;;11.33;71.15
72857;BME280;62742;52.136;4.500;2023-04-24T10:43:23;100764.00;;;10.97;71.57
72857;BME280;62742;52.136;4.500;2023-04-24T10:46:00;100767.09;;;10.71;73.79
72857;BME280;62742;52.136;4.500;2023-04-24T10:48:31;100782.97;;;10.63;74.60
72857;BME280;62742;52.136;4.500;2023-04-24T10:50:58;100781.53;;;10.45;75.93
72857;BME280;62742;52.136;4.500;2023-04-24T10:53:27;100793.81;;;10.43;77.09
72857;BME280;62742;52.136;4.500;2023-04-24T10:56:07;100783.69;;;10.73;74.44
72857;BME280;62742;52.136;4.500;2023-04-24T10:58:40;100784.78;;;11.10;75.76
72857;BME280;62742;52.136;4.500;2023-04-24T11:01:30;100787.94;;;10.80;73.73
72857;BME280;62742;52.136;4.500;2023-04-24T11:03:59;100792.69;;;11.08;75.73
72857;BME280;62742;52.136;4.500;2023-04-24T11:06:28;100802.69;;;10.89;73.00
72857;BME280;62742;52.136;4.500;2023-04-24T11:09:02;100796.31;;;11.02;73.07
72857;BME280;62742;52.136;4.500;2023-04-24T11:11:32;100801.59;;;11.01;73.81
72857;BME280;62742;52.136;4.500;2023-04-24T11:16:27;100807.84;;;10.95;73.80
72857;BME280;62742;52.136;4.500;2023-04-24T11:21:48;100814.50;;;11.60;72.17
72857;BME280;62742;52.136;4.500;2023-04-24T11:32:22;100828.34;;;11.70;70.55
72857;BME280;62742;52.136;4.500;2023-04-24T11:34:50;100827.03;;;11.47;70.01
72857;BME280;62742;52.136;4.500;2023-04-24T11:37:41;100829.88;;;11.36;70.32
72857;BME280;62742;52.136;4.500;2023-04-24T11:40:12;100831.19;;;12.04;69.34
72857;BME280;62742;52.136;4.500;2023-04-24T11:42:45;100836.16;;;12.56;66.71
72857;BME280;62742;52.136;4.500;2023-04-24T11:45:15;100827.47;;;12.13;65.47
72857;BME280;62742;52.136;4.500;2023-04-24T11:47:42;100851.53;;;11.51;68.79
72857;BME280;62742;52.136;4.500;2023-04-24T11:50:12;100853.69;;;11.29;68.08
72857;BME280;62742;52.136;4.500;2023-04-24T11:52:40;100860.53;;;10.88;68.94
72857;BME280;62742;52.136;4.500;2023-04-24T11:55:22;100863.03;;;10.97;70.01
72857;BME280;62742;52.136;4.500;2023-04-24T11:57:49;100862.44;;;11.31;68.72
72857;BME280;62742;52.136;4.500;2023-04-24T12:00:24;100865.56;;;11.51;69.51
72857;BME280;62742;52.136;4.500;2023-04-24T12:03:03;100878.91;;;11.40;69.43
72857;BME280;62742;52.136;4.500;2023-04-24T12:05:31;100873.94;;;10.72;70.22
72857;BME280;62742;52.136;4.500;2023-04-24T12:07:57;100878.78;;;10.41;70.74
72857;BME280;62742;52.136;4.500;2023-04-24T12:10:24;100884.00;;;10.44;72.60
72857;BME280;62742;52.136;4.500;2023-04-24T12:12:53;100892.34;;;10.72;69.71
72857;BME280;62742;52.136;4.500;2023-04-24T12:15:22;100891.97;;;10.95;67.45
72857;BME280;62742;52.136;4.500;2023-04-24T12:17:53;100894.81;;;11.81;68.83
72857;BME280;62742;52.136;4.500;2023-04-24T12:20:27;100886.41;;;12.06;64.38
72857;BME280;62742;52.136;4.500;2023-04-24T12:22:56;100887.28;;;11.61;64.72
72857;BME280;62742;52.136;4.500;2023-04-24T12:25:24;100885.91;;;11.87;64.91
72857;BME280;62742;52.136;4.500;2023-04-24T12:27:53;100888.19;;;12.46;65.23
72857;BME280;62742;52.136;4.500;2023-04-24T12:30:40;100896.19;;;12.01;65.65
72857;BME280;62742;52.136;4.500;2023-04-24T12:33:10;100912.31;;;11.35;64.30
72857;BME280;62742;52.136;4.500;2023-04-24T12:35:36;100916.34;;;11.56;64.63
72857;BME280;62742;52.136;4.500;2023-04-24T12:38:06;100919.59;;;11.21;64.65
72857;BME280;62742;52.136;4.500;2023-04-24T12:40:33;100911.72;;;11.69;66.88
72857;BME280;62742;52.136;4.500;2023-04-24T12:43:00;100913.00;;;12.37;66.67
72857;BME280;62742;52.136;4.500;2023-04-24T12:45:26;100923.75;;;12.26;63.48
72857;BME280;62742;52.136;4.500;2023-04-24T12:47:53;100927.88;;;12.38;62.05
72857;BME280;62742;52.136;4.500;2023-04-24T12:50:20;100916.50;;;12.38;61.87
72857;BME280;62742;52.136;4.500;2023-04-24T12:52:47;100917.69;;;12.23;63.73
72857;BME280;62742;52.136;4.500;2023-04-24T12:55:13;100913.78;;;12.80;63.55
72857;BME280;62742;52.136;4.500;2023-04-24T12:57:40;100923.50;;;12.78;62.11
72857;BME280;62742;52.136;4.500;2023-04-24T13:00:07;100918.78;;;12.90;61.37
72857;BME280;62742;52.136;4.500;2023-04-24T13:02:36;100924.19;;;12.84;62.57
72857;BME280;62742;52.136;4.500;2023-04-24T13:05:02;100921.97;;;12.28;61.44
72857;BME280;62742;52.136;4.500;2023-04-24T13:07:28;100919.31;;;12.30;62.47
72857;BME280;62742;52.136;4.500;2023-04-24T13:09:55;100927.09;;;12.73;64.83
72857;BME280;62742;52.136;4.500;2023-04-24T13:12:22;100935.28;;;12.63;61.47
72857;BME280;62742;52.136;4.500;2023-04-24T13:14:49;100930.88;;;12.62;61.95